Time;durP1;ratioP1;P1;durP2;ratioP2;P2;SDS_P1;SDS_P2;PMS_P1;PMS_P2;Temp;Humidity;BMP_temperature;BMP_pressure;BME280_temperature;BME280_humidity;BME280_pressure;Samples;Min_cycle;Max_cycle;Signal;HPM_P1;HPM_P2
2021/07/02 00:01:38;;;;;;;11.48;6.57;;;;;;;;;;5082706;28;37203;-80
2021/07/02 00:04:05;;;;;;;13.38;6.70;;;;;;;;;;5070612;28;39245;-80
2021/07/02 00:06:31;;;;;;;12.57;7.43;;;;;;;;;;5078657;28;35654;-81
2021/07/02 00:08:58;;;;;;;12.73;6.50;;;;;;;;;;5099900;28;40439;-81
2021/07/02 00:11:25;;;;;;;14.85;7.28;;;;;;;;;;5082065;28;40387;-81
2021/07/02 00:13:51;;;;;;;13.85;8.10;;;;;;;;;;5097177;28;38383;-81
2021/07/02 00:16:18;;;;;;;15.45;7.60;;;;;;;;;;5077889;28;35081;-81
2021/07/02 00:18:44;;;;;;;11.32;7.05;;;;;;;;;;5080959;28;37551;-81
2021/07/02 00:21:11;;;;;;;14.43;7.28;;;;;;;;;;5079200;28;38713;-80
2021/07/02 00:23:37;;;;;;;15.40;7.75;;;;;;;;;;5095769;28;38649;-81
2021/07/02 00:26:06;;;;;;;16.58;7.68;;;;;;;;;;5074130;28;35423;-81
2021/07/02 00:28:33;;;;;;;13.23;7.85;;;;;;;;;;5070328;28;39697;-81
2021/07/02 00:30:59;;;;;;;13.90;7.68;;;;;;;;;;5079911;28;39579;-81
2021/07/02 00:33:26;;;;;;;13.18;7.93;;;;;;;;;;5074823;28;38258;-81
2021/07/02 00:35:55;;;;;;;14.65;7.20;;;;;;;;;;5077107;28;35782;-81
2021/07/02 00:38:27;;;;;;;13.40;7.72;;;;;;;;;;5071167;28;37383;-81
2021/07/02 00:40:54;;;;;;;14.05;7.57;;;;;;;;;;5076280;28;37548;-81
2021/07/02 00:43:20;;;;;;;13.98;7.47;;;;;;;;;;5070513;28;37668;-82
2021/07/02 00:45:47;;;;;;;14.27;7.20;;;;;;;;;;5091469;28;35798;-81
2021/07/02 00:48:13;;;;;;;12.68;7.78;;;;;;;;;;5074222;28;37441;-81
2021/07/02 00:50:39;;;;;;;15.75;6.95;;;;;;;;;;5095720;28;38184;-81
2021/07/02 00:53:06;;;;;;;12.82;7.03;;;;;;;;;;5097588;28;41329;-80
2021/07/02 00:55:33;;;;;;;12.95;7.50;;;;;;;;;;5080108;28;37070;-80
2021/07/02 00:57:59;;;;;;;12.23;7.68;;;;;;;;;;5092014;28;39000;-80
2021/07/02 01:00:26;;;;;;;11.65;7.65;;;;;;;;;;5089033;28;38971;-81
2021/07/02 01:02:52;;;;;;;13.88;7.82;;;;;;;;;;5067551;28;39476;-81
2021/07/02 01:05:19;;;;;;;13.18;7.50;;;;;;;;;;5066432;28;37579;-81
2021/07/02 01:07:45;;;;;;;14.07;8.50;;;;;;;;;;5065219;28;40173;-80
2021/07/02 01:10:16;;;;;;;10.75;8.15;;;;;;;;;;5060631;28;36964;-80
2021/07/02 01:12:43;;;;;;;14.27;7.90;;;;;;;;;;5071478;28;37325;-80
2021/07/02 01:15:19;;;;;;;14.65;8.95;;;;;;;;;;5066351;28;35357;-78
2021/07/02 01:17:45;;;;;;;11.77;7.40;;;;;;;;;;5086016;28;47248;-80
2021/07/02 01:20:12;;;;;;;14.13;8.20;;;;;;;;;;5052879;28;38767;-80
2021/07/02 01:22:39;;;;;;;18.17;8.48;;;;;;;;;;5071962;28;38830;-80
2021/07/02 01:25:06;;;;;;;16.10;8.07;;;;;;;;;;5091011;28;36657;-78
2021/07/02 01:27:33;;;;;;;16.17;8.18;;;;;;;;;;5069600;28;39731;-79
2021/07/02 01:29:59;;;;;;;14.82;9.80;;;;;;;;;;5088403;28;38935;-80
2021/07/02 01:32:26;;;;;;;12.60;8.35;;;;;;;;;;5088646;28;36585;-80
2021/07/02 01:34:52;;;;;;;11.20;8.23;;;;;;;;;;5071511;28;38327;-80
2021/07/02 01:37:18;;;;;;;13.15;8.48;;;;;;;;;;5092694;28;36708;-80
2021/07/02 01:39:45;;;;;;;17.77;9.10;;;;;;;;;;5085763;28;38695;-80
2021/07/02 01:42:11;;;;;;;11.80;7.63;;;;;;;;;;5071974;28;38113;-80
2021/07/02 01:44:39;;;;;;;14.75;9.38;;;;;;;;;;5093614;28;37129;-80
2021/07/02 01:47:05;;;;;;;13.38;8.48;;;;;;;;;;5086195;28;39318;-80
2021/07/02 01:49:32;;;;;;;15.02;9.05;;;;;;;;;;5082773;28;39545;-80
2021/07/02 01:51:58;;;;;;;16.67;9.05;;;;;;;;;;5061135;28;37394;-80
2021/07/02 01:54:25;;;;;;;13.40;8.10;;;;;;;;;;5069687;28;37072;-80
2021/07/02 01:56:51;;;;;;;13.77;8.65;;;;;;;;;;5086553;28;40145;-80
2021/07/02 01:59:18;;;;;;;14.23;8.05;;;;;;;;;;5069546;28;37451;-80
2021/07/02 02:01:46;;;;;;;17.20;9.73;;;;;;;;;;5065189;28;37330;-80
2021/07/02 02:04:13;;;;;;;16.52;8.45;;;;;;;;;;5073704;28;35501;-80
2021/07/02 02:06:40;;;;;;;15.15;8.20;;;;;;;;;;5074059;28;37373;-80
2021/07/02 02:09:07;;;;;;;21.58;11.60;;;;;;;;;;5092031;28;38997;-79
2021/07/02 02:11:34;;;;;;;18.25;10.38;;;;;;;;;;5083571;28;38190;-79
2021/07/02 02:14:01;;;;;;;14.73;9.95;;;;;;;;;;5083080;28;37977;-80
2021/07/02 02:16:27;;;;;;;17.52;10.15;;;;;;;;;;5062335;28;47500;-79
2021/07/02 02:18:54;;;;;;;19.13;10.00;;;;;;;;;;5063043;28;37703;-79
2021/07/02 02:21:20;;;;;;;19.65;10.43;;;;;;;;;;5083639;28;39541;-79
2021/07/02 02:23:46;;;;;;;19.50;10.88;;;;;;;;;;5091856;28;37562;-80
2021/07/02 02:26:13;;;;;;;20.65;11.65;;;;;;;;;;5087473;28;42283;-80
2021/07/02 02:28:40;;;;;;;18.38;11.35;;;;;;;;;;5085383;28;39608;-80
2021/07/02 02:31:07;;;;;;;23.95;13.23;;;;;;;;;;5066224;28;37929;-80
2021/07/02 02:33:33;;;;;;;17.20;11.50;;;;;;;;;;5080685;28;37095;-80
2021/07/02 02:36:00;;;;;;;20.02;12.68;;;;;;;;;;5066295;28;39685;-80
2021/07/02 02:38:26;;;;;;;20.00;11.85;;;;;;;;;;5071157;28;39056;-80
2021/07/02 02:40:52;;;;;;;18.02;12.45;;;;;;;;;;5091539;28;38837;-79
2021/07/02 02:43:19;;;;;;;25.80;13.18;;;;;;;;;;5095287;28;37829;-80
2021/07/02 02:45:45;;;;;;;17.50;12.07;;;;;;;;;;5080113;28;39010;-79
2021/07/02 02:48:12;;;;;;;21.75;13.25;;;;;;;;;;5097586;28;38362;-80
2021/07/02 02:50:38;;;;;;;24.17;14.02;;;;;;;;;;5105771;28;39343;-80
2021/07/02 02:53:05;;;;;;;23.77;13.93;;;;;;;;;;5076576;28;37999;-80
2021/07/02 02:55:31;;;;;;;25.23;14.93;;;;;;;;;;5090367;28;39161;-80
2021/07/02 02:57:58;;;;;;;20.73;14.68;;;;;;;;;;5075621;28;37542;-81
2021/07/02 03:00:24;;;;;;;22.02;13.75;;;;;;;;;;5093654;28;38136;-81
2021/07/02 03:02:50;;;;;;;28.20;13.80;;;;;;;;;;5096483;28;41156;-81
2021/07/02 03:05:17;;;;;;;20.33;12.23;;;;;;;;;;5090009;28;39976;-80
2021/07/02 03:07:43;;;;;;;20.05;12.00;;;;;;;;;;5097159;28;38571;-80
2021/07/02 03:10:10;;;;;;;21.15;12.50;;;;;;;;;;5079415;28;38514;-80
2021/07/02 03:12:39;;;;;;;20.58;12.88;;;;;;;;;;5080685;28;35893;-80
2021/07/02 03:15:05;;;;;;;18.23;11.80;;;;;;;;;;5101929;28;38825;-77
2021/07/02 03:17:32;;;;;;;20.88;12.00;;;;;;;;;;5081040;28;39255;-80
2021/07/02 03:19:58;;;;;;;15.93;11.65;;;;;;;;;;5080286;28;39805;-81
2021/07/02 03:22:25;;;;;;;23.00;12.77;;;;;;;;;;5099747;27;37464;-81
2021/07/02 03:24:54;;;;;;;22.58;13.07;;;;;;;;;;5082965;28;39371;-81
2021/07/02 03:27:20;;;;;;;21.88;12.93;;;;;;;;;;5099088;28;39284;-80
2021/07/02 03:29:47;;;;;;;20.83;11.88;;;;;;;;;;5087487;28;36985;-81
2021/07/02 03:32:13;;;;;;;23.17;13.68;;;;;;;;;;5109578;28;38475;-81
2021/07/02 03:34:46;;;;;;;21.48;14.75;;;;;;;;;;5091851;28;38773;-80
2021/07/02 03:37:16;;;;;;;19.50;13.27;;;;;;;;;;5085698;28;39631;-81
2021/07/02 03:39:42;;;;;;;24.70;14.23;;;;;;;;;;5099287;28;38079;-79
2021/07/02 03:42:11;;;;;;;23.20;14.02;;;;;;;;;;5100785;28;36969;-80
2021/07/02 03:44:38;;;;;;;24.23;14.82;;;;;;;;;;5081795;28;38616;-81
2021/07/02 03:47:04;;;;;;;26.02;15.07;;;;;;;;;;5095139;28;38326;-81
2021/07/02 03:49:31;;;;;;;27.80;15.75;;;;;;;;;;5073327;28;37348;-81
2021/07/02 03:51:57;;;;;;;24.45;14.77;;;;;;;;;;5079337;28;35864;-82
2021/07/02 03:54:30;;;;;;;23.00;14.52;;;;;;;;;;5077844;28;37734;-81
2021/07/02 03:57:11;;;;;;;24.45;17.15;;;;;;;;;;5078352;28;37441;-82
2021/07/02 03:59:45;;;;;;;29.30;17.87;;;;;;;;;;5075592;28;48654;-82
2021/07/02 04:02:14;;;;;;;29.13;18.65;;;;;;;;;;5072056;28;36356;-82
2021/07/02 04:04:41;;;;;;;25.90;17.45;;;;;;;;;;5078581;28;38361;-83
2021/07/02 04:07:08;;;;;;;30.98;18.85;;;;;;;;;;5078633;28;38235;-83
2021/07/02 04:09:35;;;;;;;32.08;20.23;;;;;;;;;;5082219;28;38738;-83
2021/07/02 04:12:02;;;;;;;30.77;20.25;;;;;;;;;;5079985;28;35774;-84
2021/07/02 04:14:32;;;;;;;35.55;21.65;;;;;;;;;;5085307;28;38512;-83
2021/07/02 04:17:05;;;;;;;39.78;24.05;;;;;;;;;;5089430;28;38140;-84
2021/07/02 04:19:33;;;;;;;35.97;22.85;;;;;;;;;;5089146;28;47498;-82
2021/07/02 04:22:00;;;;;;;36.08;22.20;;;;;;;;;;5089343;28;38466;-83
2021/07/02 04:24:28;;;;;;;37.67;24.40;;;;;;;;;;5090388;27;39157;-84
2021/07/02 04:33:14;;;;;;;38.13;24.83;;;;;;;;;;5431262;22;50602;-81
2021/07/02 04:41:21;;;;;;;35.40;23.83;;;;;;;;;;5110404;27;39842;-81
2021/07/02 04:43:50;;;;;;;32.25;21.70;;;;;;;;;;5095517;27;37123;-81
2021/07/02 04:48:56;;;;;;;46.03;25.80;;;;;;;;;;6141778;22;20315;-81
2021/07/02 04:51:35;;;;;;;30.52;20.73;;;;;;;;;;5068555;28;35999;-82
2021/07/02 04:54:05;;;;;;;29.15;20.38;;;;;;;;;;5057392;28;37626;-81
2021/07/02 04:56:46;;;;;;;36.53;24.95;;;;;;;;;;5069250;28;47602;-81
2021/07/02 04:59:17;;;;;;;33.67;21.75;;;;;;;;;;5057708;28;38426;-83
2021/07/02 05:07:40;;;;;;;30.55;22.83;;;;;;;;;;5853020;22;20143;-82
2021/07/02 05:37:45;;;;;;;23.70;16.88;;;;;;;;;;5403562;22;20041;-81
2021/07/02 05:40:14;;;;;;;23.77;15.95;;;;;;;;;;5039510;28;39955;-81
2021/07/02 05:42:42;;;;;;;18.20;13.30;;;;;;;;;;5054824;28;38803;-80
2021/07/02 05:45:48;;;;;;;;;;;;;;;;;;;;;
2021/07/02 05:48:49;;;;;;;16.90;11.57;;;;;;;;;;5018138;28;38159;-80
2021/07/02 05:57:17;;;;;;;14.82;9.50;;;;;;;;;;5039291;28;40104;-82
2021/07/02 06:07:45;;;;;;;10.82;8.50;;;;;;;;;;5994077;22;20045;-83
2021/07/02 06:18:45;;;;;;;10.10;8.52;;;;;;;;;;5640494;22;20251;-80
2021/07/02 06:21:16;;;;;;;11.30;8.65;;;;;;;;;;5092015;28;37599;-80
2021/07/02 06:28:55;;;;;;;10.18;8.02;;;;;;;;;;5744840;22;19924;-82
2021/07/02 06:45:04;;;;;;;11.77;8.68;;;;;;;;;;5662495;22;20256;31
2021/07/02 06:53:19;;;;;;;15.23;9.13;;;;;;;;;;5368578;22;20049;-80
2021/07/02 06:55:45;;;;;;;12.10;8.50;;;;;;;;;;5079355;22;38806;-81
2021/07/02 06:58:17;;;;;;;14.25;9.13;;;;;;;;;;5067855;28;39853;-82
2021/07/02 07:00:47;;;;;;;11.75;8.55;;;;;;;;;;5066413;28;38337;-79
2021/07/02 07:03:18;;;;;;;11.10;8.88;;;;;;;;;;5092927;22;36187;-80
2021/07/02 07:05:45;;;;;;;13.23;8.90;;;;;;;;;;5076836;28;38738;-80
2021/07/02 07:08:30;;;;;;;11.93;8.00;;;;;;;;;;5084105;28;38779;-81
2021/07/02 07:10:59;;;;;;;10.10;8.05;;;;;;;;;;5084819;28;36053;-82
2021/07/02 07:17:04;;;;;;;15.35;10.15;;;;;;;;;;5070036;28;50542;-80
2021/07/02 07:19:31;;;;;;;12.02;9.20;;;;;;;;;;5054877;28;47394;-80
2021/07/02 07:25:06;;;;;;;11.77;8.75;;;;;;;;;;6240295;22;20024;31
2021/07/02 07:27:36;;;;;;;12.00;7.93;;;;;;;;;;5530112;22;47610;-79
2021/07/02 07:30:03;;;;;;;10.35;7.35;;;;;;;;;;5228311;22;36963;-80
2021/07/02 07:32:39;;;;;;;12.07;8.43;;;;;;;;;;5057277;28;37024;-80
2021/07/02 07:45:53;;;;;;;8.70;7.25;;;;;;;;;;5316959;22;20055;-81
2021/07/02 07:56:39;;;;;;;14.07;8.63;;;;;;;;;;6123317;22;20024;-81
2021/07/02 08:06:54;;;;;;;13.63;8.40;;;;;;;;;;5726601;22;20049;-78
2021/07/02 08:09:44;;;;;;;12.95;8.35;;;;;;;;;;5063899;28;40299;-82
2021/07/02 08:12:14;;;;;;;12.23;8.38;;;;;;;;;;5041491;28;39000;-80
2021/07/02 08:20:39;;;;;;;10.23;7.45;;;;;;;;;;5822921;22;20029;-81
2021/07/02 08:31:38;;;;;;;9.27;6.68;;;;;;;;;;5044933;28;50393;-80
2021/07/02 08:34:15;;;;;;;10.20;7.50;;;;;;;;;;5047875;28;38880;-82
2021/07/02 08:36:42;;;;;;;13.38;8.98;;;;;;;;;;5053560;28;38341;-78
2021/07/02 08:39:15;;;;;;;11.52;7.40;;;;;;;;;;5064484;28;37169;-80
2021/07/02 08:41:42;;;;;;;9.80;7.80;;;;;;;;;;5036903;28;39855;-79
2021/07/02 08:44:11;;;;;;;12.10;8.05;;;;;;;;;;5041320;28;37292;-79
2021/07/02 08:46:42;;;;;;;11.10;8.43;;;;;;;;;;5062707;28;37374;-79
2021/07/02 08:49:20;;;;;;;16.27;8.77;;;;;;;;;;5048894;28;34254;-80
2021/07/02 08:51:55;;;;;;;13.85;10.05;;;;;;;;;;5032688;28;39122;-79
2021/07/02 08:54:51;;;;;;;13.82;9.32;;;;;;;;;;5056685;28;37476;-79
2021/07/02 08:57:35;;;;;;;14.98;9.10;;;;;;;;;;5012170;28;37534;-80
2021/07/02 09:00:09;;;;;;;14.15;10.18;;;;;;;;;;5030744;28;37156;-81
2021/07/02 09:02:38;;;;;;;18.90;10.85;;;;;;;;;;6009780;22;48392;-80
2021/07/02 09:15:59;;;;;;;14.48;9.98;;;;;;;;;;5766492;22;19909;-85
2021/07/02 09:18:49;;;;;;;15.75;10.82;;;;;;;;;;5215200;22;38674;-82
2021/07/02 09:21:46;;;;;;;12.10;9.45;;;;;;;;;;5059753;28;37065;-81
2021/07/02 09:24:38;;;;;;;19.10;11.13;;;;;;;;;;5057668;28;39178;-81
2021/07/02 09:34:58;;;;;;;16.95;10.38;;;;;;;;;;5796452;22;20057;-81
2021/07/02 09:37:48;;;;;;;15.48;10.27;;;;;;;;;;5095099;28;39648;-79
2021/07/02 09:50:46;;;;;;;15.32;10.38;;;;;;;;;;5916703;22;20051;-83
2021/07/02 10:42:14;;;;;;;13.05;9.30;;;;;;;;;;5548778;22;20018;-82
2021/07/02 10:45:20;;;;;;;11.82;8.70;;;;;;;;;;5073346;27;48373;-82
2021/07/02 10:50:41;;;;;;;10.27;8.20;;;;;;;;;;5666798;22;20088;-84
2021/07/02 11:01:37;;;;;;;12.40;7.75;;;;;;;;;;5995734;22;20057;-81
2021/07/02 11:09:56;;;;;;;12.65;8.38;;;;;;;;;;6171665;22;20027;-81
2021/07/02 11:12:34;;;;;;;13.45;9.15;;;;;;;;;;5964184;22;35602;-82
2021/07/02 11:15:02;;;;;;;13.73;8.48;;;;;;;;;;5417583;22;39297;-81
2021/07/02 11:17:44;;;;;;;12.80;8.10;;;;;;;;;;5059692;27;48362;-82
2021/07/02 11:20:12;;;;;;;;;;;;;;;;;;5092779;28;38433;-81
2021/07/02 11:22:45;;;;;;;13.63;8.70;;;;;;;;;;5122755;27;37153;-81
2021/07/02 11:25:20;;;;;;;14.80;9.40;;;;;;;;;;5090758;28;38884;-80
2021/07/02 11:27:55;;;;;;;13.73;8.65;;;;;;;;;;5086828;28;37743;-80
2021/07/02 11:30:22;;;;;;;12.32;7.63;;;;;;;;;;5100805;28;39495;-80
2021/07/02 11:32:50;;;;;;;10.90;8.13;;;;;;;;;;5099991;28;37092;-80
2021/07/02 11:35:27;;;;;;;10.40;6.78;;;;;;;;;;5096303;28;40431;-79
2021/07/02 11:40:28;;;;;;;9.88;7.13;;;;;;;;;;5090485;28;39828;-79
2021/07/02 11:42:55;;;;;;;11.63;8.43;;;;;;;;;;5081890;28;37026;-80
2021/07/02 11:45:35;;;;;;;15.05;9.20;;;;;;;;;;5065899;28;37881;-79
2021/07/02 11:48:02;;;;;;;9.10;7.85;;;;;;;;;;5100229;28;38593;-78
2021/07/02 11:50:41;;;;;;;11.88;8.40;;;;;;;;;;5093263;28;37012;-79
2021/07/02 11:53:08;;;;;;;10.88;7.35;;;;;;;;;;5072524;28;35682;-80
2021/07/02 11:55:34;;;;;;;11.00;6.95;;;;;;;;;;5092571;28;39099;-78
2021/07/02 11:58:16;;;;;;;9.32;7.72;;;;;;;;;;5073586;28;38014;-79
2021/07/02 12:00:42;;;;;;;9.80;6.65;;;;;;;;;;5088626;28;48855;-79
2021/07/02 12:03:09;;;;;;;12.25;7.60;;;;;;;;;;5091319;28;37903;-78
2021/07/02 12:05:36;;;;;;;9.25;6.63;;;;;;;;;;5072458;28;37760;-79
2021/07/02 12:08:03;;;;;;;12.07;6.68;;;;;;;;;;5067542;28;37069;-78
2021/07/02 12:10:30;;;;;;;7.15;6.18;;;;;;;;;;5092474;28;38401;-79
2021/07/02 12:13:06;;;;;;;8.65;6.93;;;;;;;;;;5068568;28;36276;-78
2021/07/02 12:15:32;;;;;;;8.32;6.25;;;;;;;;;;5090689;28;48617;-78
2021/07/02 12:18:00;;;;;;;7.93;6.00;;;;;;;;;;5081742;28;38544;-79
2021/07/02 12:20:26;;;;;;;9.95;6.78;;;;;;;;;;5069811;28;36926;-79
2021/07/02 12:23:03;;;;;;;10.30;6.78;;;;;;;;;;5093302;28;36984;-79
2021/07/02 12:25:30;;;;;;;9.45;6.07;;;;;;;;;;5067758;28;47822;-79
2021/07/02 12:28:01;;;;;;;10.75;7.50;;;;;;;;;;5087909;28;38765;-80
2021/07/02 14:01:44;;;;;;;7.32;6.00;;;;;;;;;;5530851;22;19924;-80
2021/07/02 14:04:16;;;;;;;6.97;5.35;;;;;;;;;;5029491;28;36887;-81
2021/07/02 14:07:13;;;;;;;9.02;6.40;;;;;;;;;;5054163;28;40269;-81
2021/07/02 14:10:12;;;;;;;5.65;4.88;;;;;;;;;;5024017;28;50433;-80
2021/07/02 14:13:04;;;;;;;7.35;5.80;;;;;;;;;;5035782;28;49341;-80
2021/07/02 14:15:52;;;;;;;8.50;5.70;;;;;;;;;;4996980;28;49436;-80
2021/07/02 14:18:30;;;;;;;6.53;5.57;;;;;;;;;;4987266;28;38772;-81
2021/07/02 14:21:21;;;;;;;5.72;5.03;;;;;;;;;;5024804;28;40131;-81
2021/07/02 14:24:07;;;;;;;8.75;5.68;;;;;;;;;;5022088;28;37667;-80
2021/07/02 14:26:54;;;;;;;6.35;5.20;;;;;;;;;;5012676;28;38702;-81
2021/07/02 14:29:43;;;;;;;6.80;4.80;;;;;;;;;;5051319;28;39132;-80
2021/07/02 14:32:24;;;;;;;6.88;5.32;;;;;;;;;;5005782;28;37653;-80
2021/07/02 14:35:15;;;;;;;7.93;6.45;;;;;;;;;;5039456;28;39319;-80
2021/07/02 14:37:47;;;;;;;6.22;5.05;;;;;;;;;;5037638;28;36204;-79
2021/07/02 14:40:21;;;;;;;6.93;5.70;;;;;;;;;;5016292;28;38133;-82
2021/07/02 14:42:51;;;;;;;9.18;5.78;;;;;;;;;;5017505;28;39753;-80
2021/07/02 15:04:18;;;;;;;8.65;5.65;;;;;;;;;;6165003;22;20021;-81
2021/07/02 15:12:25;;;;;;;7.35;5.20;;;;;;;;;;6066546;22;21404;-81
2021/07/02 19:48:01;;;;;;;11.90;7.70;;;;;;;;;;5753822;22;20061;-82
2021/07/02 19:58:58;;;;;;;9.82;7.75;;;;;;;;;;5182473;22;20051;-82
2021/07/02 20:24:51;;;;;;;10.02;8.43;;;;;;;;;;5719706;22;20049;-82
2021/07/02 20:27:18;;;;;;;11.32;8.23;;;;;;;;;;5076862;28;38237;-81
2021/07/02 20:29:45;;;;;;;10.70;7.90;;;;;;;;;;5079914;28;36290;-80
2021/07/02 20:56:35;;;;;;;18.17;12.27;;;;;;;;;;5973237;22;20057;-83
